sensor_id;sensor_type;location;lat;lon;timestamp;P1;durP1;ratioP1;P2;durP2;ratioP2
11807;SDS011;5961;42.640;23.380;2023-04-03T00:00:00;3.17;;;2.30;;
11807;SDS011;5961;42.640;23.380;2023-04-03T00:02:28;2.90;;;2.27;;
11807;SDS011;5961;42.640;23.380;2023-04-03T00:04:54;2.50;;;2.17;;
11807;SDS011;5961;42.640;23.380;2023-04-03T00:07:22;2.83;;;2.30;;
11807;SDS011;5961;42.640;23.380;2023-04-03T00:09:49;2.90;;;2.10;;
11807;SDS011;5961;42.640;23.380;2023-04-03T00:12:16;2.10;;;1.90;;
11807;SDS011;5961;42.640;23.380;2023-04-03T00:14:43;2.87;;;2.37;;
11807;SDS011;5961;42.640;23.380;2023-04-03T00:17:09;2.20;;;2.00;;
11807;SDS011;5961;42.640;23.380;2023-04-03T00:19:36;2.23;;;2.03;;
11807;SDS011;5961;42.640;23.380;2023-04-03T00:22:03;2.83;;;2.30;;
11807;SDS011;5961;42.640;23.380;2023-04-03T00:24:31;3.07;;;2.30;;
11807;SDS011;5961;42.640;23.380;2023-04-03T00:26:58;3.20;;;2.40;;
11807;SDS011;5961;42.640;23.380;2023-04-03T00:29:24;3.87;;;2.07;;
11807;SDS011;5961;42.640;23.380;2023-04-03T00:31:51;2.20;;;2.00;;
11807;SDS011;5961;42.640;23.380;2023-04-03T00:34:18;2.83;;;2.27;;
11807;SDS011;5961;42.640;23.380;2023-04-03T00:36:44;2.20;;;2.00;;
11807;SDS011;5961;42.640;23.380;2023-04-03T00:39:11;2.73;;;2.20;;
11807;SDS011;5961;42.640;23.380;2023-04-03T00:41:39;2.50;;;2.30;;
11807;SDS011;5961;42.640;23.380;2023-04-03T00:44:19;2.83;;;2.43;;
11807;SDS011;5961;42.640;23.380;2023-04-03T00:46:47;3.07;;;2.30;;
11807;SDS011;5961;42.640;23.380;2023-04-03T00:49:14;2.70;;;2.50;;
11807;SDS011;5961;42.640;23.380;2023-04-03T00:51:41;2.10;;;1.90;;
11807;SDS011;5961;42.640;23.380;2023-04-03T00:54:08;2.23;;;1.97;;
11807;SDS011;5961;42.640;23.380;2023-04-03T00:56:35;3.20;;;2.00;;
11807;SDS011;5961;42.640;23.380;2023-04-03T00:59:06;2.73;;;1.87;;
11807;SDS011;5961;42.640;23.380;2023-04-03T01:01:36;2.40;;;2.07;;
11807;SDS011;5961;42.640;23.380;2023-04-03T01:04:04;2.53;;;2.07;;
11807;SDS011;5961;42.640;23.380;2023-04-03T01:06:32;2.30;;;2.10;;
11807;SDS011;5961;42.640;23.380;2023-04-03T01:09:01;2.23;;;1.80;;
11807;SDS011;5961;42.640;23.380;2023-04-03T01:11:28;3.57;;;2.00;;
11807;SDS011;5961;42.640;23.380;2023-04-03T01:13:54;3.00;;;2.00;;
11807;SDS011;5961;42.640;23.380;2023-04-03T01:16:23;2.20;;;1.90;;
11807;SDS011;5961;42.640;23.380;2023-04-03T01:18:49;2.43;;;2.00;;
11807;SDS011;5961;42.640;23.380;2023-04-03T01:21:30;4.60;;;2.40;;
11807;SDS011;5961;42.640;23.380;2023-04-03T01:24:12;2.77;;;2.20;;
11807;SDS011;5961;42.640;23.380;2023-04-03T01:26:48;2.90;;;2.23;;
11807;SDS011;5961;42.640;23.380;2023-04-03T01:29:15;2.57;;;2.37;;
11807;SDS011;5961;42.640;23.380;2023-04-03T01:31:46;3.37;;;2.50;;
11807;SDS011;5961;42.640;23.380;2023-04-03T01:34:14;3.27;;;2.63;;
11807;SDS011;5961;42.640;23.380;2023-04-03T01:36:41;3.00;;;2.20;;
11807;SDS011;5961;42.640;23.380;2023-04-03T01:39:08;4.30;;;2.50;;
11807;SDS011;5961;42.640;23.380;2023-04-03T01:41:35;3.00;;;2.43;;
11807;SDS011;5961;42.640;23.380;2023-04-03T01:44:02;3.57;;;2.30;;
11807;SDS011;5961;42.640;23.380;2023-04-03T01:46:29;2.87;;;2.50;;
11807;SDS011;5961;42.640;23.380;2023-04-03T01:48:57;6.17;;;2.53;;
11807;SDS011;5961;42.640;23.380;2023-04-03T01:51:24;3.93;;;2.50;;
11807;SDS011;5961;42.640;23.380;2023-04-03T01:53:50;2.77;;;2.20;;
11807;SDS011;5961;42.640;23.380;2023-04-03T01:56:17;2.90;;;2.60;;
11807;SDS011;5961;42.640;23.380;2023-04-03T01:58:45;3.60;;;2.50;;
11807;SDS011;5961;42.640;23.380;2023-04-03T02:01:11;3.47;;;2.30;;
11807;SDS011;5961;42.640;23.380;2023-04-03T02:03:38;2.40;;;2.20;;
11807;SDS011;5961;42.640;23.380;2023-04-03T02:06:06;4.77;;;2.40;;
11807;SDS011;5961;42.640;23.380;2023-04-03T02:08:33;3.97;;;2.30;;
11807;SDS011;5961;42.640;23.380;2023-04-03T02:11:00;2.93;;;2.63;;
11807;SDS011;5961;42.640;23.380;2023-04-03T02:13:27;3.47;;;2.53;;
11807;SDS011;5961;42.640;23.380;2023-04-03T02:15:54;2.70;;;2.17;;
11807;SDS011;5961;42.640;23.380;2023-04-03T02:18:21;4.20;;;2.50;;
11807;SDS011;5961;42.640;23.380;2023-04-03T02:20:47;2.67;;;2.10;;
11807;SDS011;5961;42.640;23.380;2023-04-03T02:23:15;2.60;;;2.27;;
11807;SDS011;5961;42.640;23.380;2023-04-03T02:25:42;3.17;;;2.23;;
11807;SDS011;5961;42.640;23.380;2023-04-03T02:28:09;4.13;;;2.70;;
11807;SDS011;5961;42.640;23.380;2023-04-03T02:30:36;2.80;;;2.47;;
11807;SDS011;5961;42.640;23.380;2023-04-03T02:33:02;4.20;;;2.70;;
11807;SDS011;5961;42.640;23.380;2023-04-03T02:35:29;4.33;;;2.20;;
11807;SDS011;5961;42.640;23.380;2023-04-03T02:37:56;2.67;;;2.27;;
11807;SDS011;5961;42.640;23.380;2023-04-03T02:40:24;2.40;;;2.00;;
11807;SDS011;5961;42.640;23.380;2023-04-03T02:42:51;3.23;;;2.30;;
11807;SDS011;5961;42.640;23.380;2023-04-03T02:45:17;2.97;;;2.30;;
11807;SDS011;5961;42.640;23.380;2023-04-03T02:47:44;3.83;;;2.70;;
11807;SDS011;5961;42.640;23.380;2023-04-03T02:50:11;3.77;;;2.30;;
11807;SDS011;5961;42.640;23.380;2023-04-03T02:52:37;4.10;;;2.33;;
11807;SDS011;5961;42.640;23.380;2023-04-03T02:55:04;2.57;;;2.37;;
11807;SDS011;5961;42.640;23.380;2023-04-03T02:57:33;2.87;;;2.20;;
11807;SDS011;5961;42.640;23.380;2023-04-03T03:00:00;4.30;;;2.70;;
11807;SDS011;5961;42.640;23.380;2023-04-03T03:02:28;4.20;;;2.50;;
11807;SDS011;5961;42.640;23.380;2023-04-03T03:04:54;3.60;;;2.37;;
11807;SDS011;5961;42.640;23.380;2023-04-03T03:07:21;3.60;;;2.30;;
11807;SDS011;5961;42.640;23.380;2023-04-03T03:09:48;2.53;;;2.30;;
11807;SDS011;5961;42.640;23.380;2023-04-03T03:12:14;2.77;;;2.40;;
11807;SDS011;5961;42.640;23.380;2023-04-03T03:14:47;2.93;;;2.63;;
11807;SDS011;5961;42.640;23.380;2023-04-03T03:17:14;5.60;;;2.70;;
11807;SDS011;5961;42.640;23.380;2023-04-03T03:19:41;5.03;;;2.60;;
11807;SDS011;5961;42.640;23.380;2023-04-03T03:22:08;3.47;;;2.43;;
11807;SDS011;5961;42.640;23.380;2023-04-03T03:24:35;3.90;;;2.90;;
11807;SDS011;5961;42.640;23.380;2023-04-03T03:27:03;5.63;;;2.80;;
11807;SDS011;5961;42.640;23.380;2023-04-03T03:29:29;9.63;;;2.70;;
11807;SDS011;5961;42.640;23.380;2023-04-03T03:31:57;4.33;;;2.80;;
11807;SDS011;5961;42.640;23.380;2023-04-03T03:34:24;3.17;;;2.73;;
11807;SDS011;5961;42.640;23.380;2023-04-03T03:36:51;3.63;;;2.60;;
11807;SDS011;5961;42.640;23.380;2023-04-03T03:39:18;4.77;;;2.57;;
11807;SDS011;5961;42.640;23.380;2023-04-03T03:41:44;3.63;;;2.70;;
11807;SDS011;5961;42.640;23.380;2023-04-03T03:44:11;5.67;;;2.60;;
11807;SDS011;5961;42.640;23.380;2023-04-03T03:46:38;3.87;;;3.27;;
11807;SDS011;5961;42.640;23.380;2023-04-03T03:49:06;15.00;;;11.07;;
11807;SDS011;5961;42.640;23.380;2023-04-03T03:51:33;4.10;;;3.27;;
11807;SDS011;5961;42.640;23.380;2023-04-03T03:54:00;4.37;;;2.90;;
11807;SDS011;5961;42.640;23.380;2023-04-03T03:56:27;3.10;;;2.73;;
11807;SDS011;5961;42.640;23.380;2023-04-03T03:58:54;2.90;;;2.57;;
11807;SDS011;5961;42.640;23.380;2023-04-03T04:01:21;4.33;;;3.10;;
11807;SDS011;5961;42.640;23.380;2023-04-03T04:03:48;4.27;;;2.97;;
11807;SDS011;5961;42.640;23.380;2023-04-03T04:06:16;3.43;;;2.70;;
11807;SDS011;5961;42.640;23.380;2023-04-03T04:08:42;3.63;;;2.97;;
11807;SDS011;5961;42.640;23.380;2023-04-03T04:11:09;5.47;;;4.13;;
11807;SDS011;5961;42.640;23.380;2023-04-03T04:13:36;8.80;;;5.73;;
11807;SDS011;5961;42.640;23.380;2023-04-03T04:16:03;8.40;;;5.90;;
11807;SDS011;5961;42.640;23.380;2023-04-03T04:18:30;4.77;;;3.63;;
11807;SDS011;5961;42.640;23.380;2023-04-03T04:20:57;3.03;;;2.70;;
11807;SDS011;5961;42.640;23.380;2023-04-03T04:23:25;4.27;;;2.83;;
11807;SDS011;5961;42.640;23.380;2023-04-03T04:25:51;3.70;;;3.03;;
11807;SDS011;5961;42.640;23.380;2023-04-03T04:28:18;7.60;;;3.73;;
11807;SDS011;5961;42.640;23.380;2023-04-03T04:30:45;4.93;;;3.23;;
11807;SDS011;5961;42.640;23.380;2023-04-03T04:33:12;11.73;;;5.93;;
11807;SDS011;5961;42.640;23.380;2023-04-03T04:35:39;16.30;;;9.87;;
11807;SDS011;5961;42.640;23.380;2023-04-03T04:38:08;11.27;;;6.33;;
11807;SDS011;5961;42.640;23.380;2023-04-03T04:40:36;15.93;;;9.73;;
11807;SDS011;5961;42.640;23.380;2023-04-03T04:43:03;4.80;;;3.70;;
11807;SDS011;5961;42.640;23.380;2023-04-03T04:45:30;26.73;;;14.20;;
11807;SDS011;5961;42.640;23.380;2023-04-03T04:47:57;4.77;;;2.87;;
11807;SDS011;5961;42.640;23.380;2023-04-03T04:50:23;6.27;;;2.80;;
11807;SDS011;5961;42.640;23.380;2023-04-03T04:52:50;16.20;;;9.43;;
11807;SDS011;5961;42.640;23.380;2023-04-03T04:55:17;32.80;;;15.87;;
11807;SDS011;5961;42.640;23.380;2023-04-03T04:57:45;13.03;;;9.20;;
11807;SDS011;5961;42.640;23.380;2023-04-03T05:00:12;17.07;;;9.57;;
11807;SDS011;5961;42.640;23.380;2023-04-03T05:02:40;10.77;;;5.90;;
11807;SDS011;5961;42.640;23.380;2023-04-03T05:05:07;9.17;;;3.93;;
11807;SDS011;5961;42.640;23.380;2023-04-03T05:07:34;5.20;;;4.13;;
11807;SDS011;5961;42.640;23.380;2023-04-03T05:10:01;9.07;;;3.67;;
11807;SDS011;5961;42.640;23.380;2023-04-03T05:12:29;8.47;;;4.10;;
11807;SDS011;5961;42.640;23.380;2023-04-03T05:14:57;7.10;;;5.07;;
11807;SDS011;5961;42.640;23.380;2023-04-03T05:17:24;11.73;;;5.50;;
11807;SDS011;5961;42.640;23.380;2023-04-03T05:19:50;17.93;;;8.40;;
11807;SDS011;5961;42.640;23.380;2023-04-03T05:22:17;21.07;;;12.27;;
11807;SDS011;5961;42.640;23.380;2023-04-03T05:24:44;7.13;;;3.20;;
11807;SDS011;5961;42.640;23.380;2023-04-03T05:27:11;5.57;;;3.43;;
11807;SDS011;5961;42.640;23.380;2023-04-03T05:29:37;5.30;;;3.00;;
11807;SDS011;5961;42.640;23.380;2023-04-03T05:32:06;4.53;;;3.70;;
11807;SDS011;5961;42.640;23.380;2023-04-03T05:34:32;5.50;;;3.37;;
11807;SDS011;5961;42.640;23.380;2023-04-03T05:36:59;5.90;;;3.23;;
11807;SDS011;5961;42.640;23.380;2023-04-03T05:39:28;13.20;;;4.10;;
11807;SDS011;5961;42.640;23.380;2023-04-03T05:41:56;8.47;;;5.90;;
11807;SDS011;5961;42.640;23.380;2023-04-03T05:44:23;8.23;;;4.40;;
11807;SDS011;5961;42.640;23.380;2023-04-03T05:46:50;7.30;;;4.60;;
11807;SDS011;5961;42.640;23.380;2023-04-03T05:49:18;8.43;;;5.50;;
11807;SDS011;5961;42.640;23.380;2023-04-03T05:51:44;11.87;;;5.90;;
11807;SDS011;5961;42.640;23.380;2023-04-03T05:54:12;12.73;;;7.27;;
11807;SDS011;5961;42.640;23.380;2023-04-03T05:56:43;21.57;;;13.73;;
11807;SDS011;5961;42.640;23.380;2023-04-03T05:59:10;23.37;;;13.63;;
11807;SDS011;5961;42.640;23.380;2023-04-03T06:01:37;18.47;;;9.67;;
11807;SDS011;5961;42.640;23.380;2023-04-03T06:04:04;14.27;;;6.40;;
11807;SDS011;5961;42.640;23.380;2023-04-03T06:06:47;10.87;;;6.10;;
11807;SDS011;5961;42.640;23.380;2023-04-03T06:09:16;12.50;;;5.77;;
11807;SDS011;5961;42.640;23.380;2023-04-03T06:11:44;16.50;;;5.93;;
11807;SDS011;5961;42.640;23.380;2023-04-03T06:14:11;11.37;;;5.93;;
11807;SDS011;5961;42.640;23.380;2023-04-03T06:16:38;12.23;;;5.63;;
11807;SDS011;5961;42.640;23.380;2023-04-03T06:19:05;21.93;;;11.03;;
11807;SDS011;5961;42.640;23.380;2023-04-03T06:21:32;14.03;;;8.87;;
11807;SDS011;5961;42.640;23.380;2023-04-03T06:24:02;15.40;;;7.87;;
11807;SDS011;5961;42.640;23.380;2023-04-03T06:26:29;16.27;;;8.60;;
11807;SDS011;5961;42.640;23.380;2023-04-03T06:28:56;15.30;;;7.27;;
11807;SDS011;5961;42.640;23.380;2023-04-03T06:31:22;10.97;;;6.47;;
11807;SDS011;5961;42.640;23.380;2023-04-03T06:33:49;17.40;;;6.53;;
11807;SDS011;5961;42.640;23.380;2023-04-03T06:36:18;9.37;;;6.00;;
11807;SDS011;5961;42.640;23.380;2023-04-03T06:38:46;15.03;;;6.63;;
11807;SDS011;5961;42.640;23.380;2023-04-03T06:41:15;8.33;;;6.30;;
11807;SDS011;5961;42.640;23.380;2023-04-03T06:43:42;11.47;;;6.07;;
11807;SDS011;5961;42.640;23.380;2023-04-03T06:46:12;8.70;;;6.20;;
11807;SDS011;5961;42.640;23.380;2023-04-03T06:48:41;8.20;;;5.93;;
11807;SDS011;5961;42.640;23.380;2023-04-03T06:51:10;5.90;;;4.60;;
11807;SDS011;5961;42.640;23.380;2023-04-03T06:53:43;7.33;;;4.50;;
11807;SDS011;5961;42.640;23.380;2023-04-03T06:56:09;10.10;;;4.73;;
11807;SDS011;5961;42.640;23.380;2023-04-03T06:58:38;9.17;;;5.57;;
11807;SDS011;5961;42.640;23.380;2023-04-03T07:01:04;7.07;;;4.63;;
11807;SDS011;5961;42.640;23.380;2023-04-03T07:03:31;5.40;;;4.30;;
11807;SDS011;5961;42.640;23.380;2023-04-03T07:05:58;8.57;;;4.40;;
11807;SDS011;5961;42.640;23.380;2023-04-03T07:08:25;6.37;;;4.60;;
11807;SDS011;5961;42.640;23.380;2023-04-03T07:10:51;6.70;;;4.00;;
11807;SDS011;5961;42.640;23.380;2023-04-03T07:13:18;8.47;;;5.00;;
11807;SDS011;5961;42.640;23.380;2023-04-03T07:15:46;9.00;;;4.80;;
11807;SDS011;5961;42.640;23.380;2023-04-03T07:18:13;13.90;;;7.20;;
11807;SDS011;5961;42.640;23.380;2023-04-03T07:20:42;18.53;;;7.70;;
11807;SDS011;5961;42.640;23.380;2023-04-03T07:23:09;24.00;;;13.80;;
11807;SDS011;5961;42.640;23.380;2023-04-03T07:25:36;10.97;;;6.40;;
11807;SDS011;5961;42.640;23.380;2023-04-03T07:28:03;10.63;;;6.60;;
11807;SDS011;5961;42.640;23.380;2023-04-03T07:30:30;10.73;;;7.17;;
11807;SDS011;5961;42.640;23.380;2023-04-03T07:32:58;8.70;;;5.90;;
11807;SDS011;5961;42.640;23.380;2023-04-03T07:35:25;12.93;;;7.73;;
11807;SDS011;5961;42.640;23.380;2023-04-03T07:37:52;10.93;;;6.67;;
11807;SDS011;5961;42.640;23.380;2023-04-03T07:40:19;13.67;;;6.57;;
11807;SDS011;5961;42.640;23.380;2023-04-03T07:42:46;16.10;;;7.17;;
11807;SDS011;5961;42.640;23.380;2023-04-03T07:47:46;17.37;;;8.87;;
11807;SDS011;5961;42.640;23.380;2023-04-03T07:50:14;18.90;;;9.80;;
11807;SDS011;5961;42.640;23.380;2023-04-03T07:52:42;22.87;;;10.77;;
11807;SDS011;5961;42.640;23.380;2023-04-03T07:55:08;22.90;;;10.90;;
11807;SDS011;5961;42.640;23.380;2023-04-03T07:57:35;27.40;;;14.43;;
11807;SDS011;5961;42.640;23.380;2023-04-03T08:00:02;29.33;;;15.00;;
11807;SDS011;5961;42.640;23.380;2023-04-03T08:02:29;25.00;;;13.73;;
11807;SDS011;5961;42.640;23.380;2023-04-03T08:04:57;27.40;;;13.90;;
11807;SDS011;5961;42.640;23.380;2023-04-03T08:07:25;32.80;;;13.87;;
11807;SDS011;5961;42.640;23.380;2023-04-03T08:09:51;26.17;;;12.77;;
11807;SDS011;5961;42.640;23.380;2023-04-03T08:12:18;21.37;;;13.13;;
11807;SDS011;5961;42.640;23.380;2023-04-03T08:14:45;27.27;;;15.80;;
11807;SDS011;5961;42.640;23.380;2023-04-03T08:17:12;28.50;;;17.33;;
11807;SDS011;5961;42.640;23.380;2023-04-03T08:19:39;29.40;;;19.07;;
11807;SDS011;5961;42.640;23.380;2023-04-03T08:22:05;35.83;;;20.97;;
11807;SDS011;5961;42.640;23.380;2023-04-03T08:24:34;39.90;;;20.10;;
11807;SDS011;5961;42.640;23.380;2023-04-03T08:27:01;36.83;;;19.53;;
11807;SDS011;5961;42.640;23.380;2023-04-03T08:29:27;38.97;;;19.80;;
11807;SDS011;5961;42.640;23.380;2023-04-03T08:31:54;48.27;;;25.03;;
11807;SDS011;5961;42.640;23.380;2023-04-03T08:34:21;35.37;;;20.20;;
11807;SDS011;5961;42.640;23.380;2023-04-03T08:36:47;29.73;;;18.20;;
11807;SDS011;5961;42.640;23.380;2023-04-03T08:39:14;29.03;;;14.63;;
11807;SDS011;5961;42.640;23.380;2023-04-03T08:41:43;28.43;;;15.23;;
11807;SDS011;5961;42.640;23.380;2023-04-03T08:44:15;29.07;;;16.37;;
11807;SDS011;5961;42.640;23.380;2023-04-03T08:46:56;24.40;;;17.60;;
11807;SDS011;5961;42.640;23.380;2023-04-03T08:49:37;29.80;;;14.40;;
11807;SDS011;5961;42.640;23.380;2023-04-03T08:52:12;25.10;;;13.53;;
11807;SDS011;5961;42.640;23.380;2023-04-03T08:54:47;18.57;;;9.90;;
11807;SDS011;5961;42.640;23.380;2023-04-03T08:57:17;30.90;;;21.03;;
11807;SDS011;5961;42.640;23.380;2023-04-03T08:59:46;26.90;;;18.67;;
11807;SDS011;5961;42.640;23.380;2023-04-03T09:02:18;27.23;;;15.70;;
11807;SDS011;5961;42.640;23.380;2023-04-03T09:04:51;15.17;;;9.70;;
11807;SDS011;5961;42.640;23.380;2023-04-03T09:07:20;19.00;;;9.43;;
11807;SDS011;5961;42.640;23.380;2023-04-03T09:09:53;13.53;;;8.20;;
11807;SDS011;5961;42.640;23.380;2023-04-03T09:12:22;37.23;;;23.30;;
11807;SDS011;5961;42.640;23.380;2023-04-03T09:14:56;22.70;;;13.67;;
11807;SDS011;5961;42.640;23.380;2023-04-03T09:17:31;20.10;;;16.20;;
11807;SDS011;5961;42.640;23.380;2023-04-03T09:20:11;34.80;;;21.83;;
11807;SDS011;5961;42.640;23.380;2023-04-03T09:22:46;18.00;;;9.10;;
11807;SDS011;5961;42.640;23.380;2023-04-03T09:25:14;12.10;;;8.00;;
11807;SDS011;5961;42.640;23.380;2023-04-03T09:27:44;13.07;;;7.57;;
11807;SDS011;5961;42.640;23.380;2023-04-03T09:30:12;13.90;;;8.80;;
11807;SDS011;5961;42.640;23.380;2023-04-03T09:32:41;19.20;;;12.90;;
11807;SDS011;5961;42.640;23.380;2023-04-03T09:35:16;14.87;;;10.00;;
11807;SDS011;5961;42.640;23.380;2023-04-03T09:37:46;11.73;;;6.70;;
11807;SDS011;5961;42.640;23.380;2023-04-03T09:40:28;16.30;;;9.43;;
11807;SDS011;5961;42.640;23.380;2023-04-03T09:43:25;12.47;;;6.97;;
11807;SDS011;5961;42.640;23.380;2023-04-03T09:45:53;17.27;;;6.80;;
11807;SDS011;5961;42.640;23.380;2023-04-03T09:48:22;14.07;;;9.07;;
11807;SDS011;5961;42.640;23.380;2023-04-03T09:50:54;19.57;;;12.63;;
11807;SDS011;5961;42.640;23.380;2023-04-03T09:53:28;14.87;;;10.30;;
11807;SDS011;5961;42.640;23.380;2023-04-03T09:55:57;18.83;;;11.93;;
11807;SDS011;5961;42.640;23.380;2023-04-03T09:58:27;19.77;;;11.10;;
11807;SDS011;5961;42.640;23.380;2023-04-03T10:00:56;15.67;;;9.80;;
11807;SDS011;5961;42.640;23.380;2023-04-03T10:03:25;13.17;;;9.23;;
11807;SDS011;5961;42.640;23.380;2023-04-03T10:05:55;10.63;;;8.30;;
11807;SDS011;5961;42.640;23.380;2023-04-03T10:08:24;10.30;;;6.87;;
11807;SDS011;5961;42.640;23.380;2023-04-03T10:11:09;7.87;;;6.90;;
11807;SDS011;5961;42.640;23.380;2023-04-03T10:13:52;11.43;;;6.97;;
11807;SDS011;5961;42.640;23.380;2023-04-03T10:16:22;6.97;;;4.70;;
11807;SDS011;5961;42.640;23.380;2023-04-03T10:18:56;11.80;;;5.17;;
11807;SDS011;5961;42.640;23.380;2023-04-03T10:21:34;9.60;;;5.40;;
11807;SDS011;5961;42.640;23.380;2023-04-03T10:24:09;9.27;;;5.33;;
11807;SDS011;5961;42.640;23.380;2023-04-03T10:26:41;7.00;;;4.70;;
11807;SDS011;5961;42.640;23.380;2023-04-03T10:29:19;6.67;;;4.57;;
11807;SDS011;5961;42.640;23.380;2023-04-03T10:31:57;9.27;;;4.73;;
11807;SDS011;5961;42.640;23.380;2023-04-03T10:34:31;8.03;;;4.27;;
11807;SDS011;5961;42.640;23.380;2023-04-03T10:37:05;5.43;;;3.17;;
11807;SDS011;5961;42.640;23.380;2023-04-03T10:39:39;4.57;;;3.47;;
11807;SDS011;5961;42.640;23.380;2023-04-03T10:42:15;4.60;;;3.50;;
11807;SDS011;5961;42.640;23.380;2023-04-03T10:44:55;6.50;;;4.00;;
11807;SDS011;5961;42.640;23.380;2023-04-03T10:47:30;6.47;;;3.43;;
11807;SDS011;5961;42.640;23.380;2023-04-03T10:50:06;8.07;;;3.73;;
11807;SDS011;5961;42.640;23.380;2023-04-03T10:52:50;7.37;;;3.90;;
11807;SDS011;5961;42.640;23.380;2023-04-03T10:55:24;6.83;;;5.03;;
11807;SDS011;5961;42.640;23.380;2023-04-03T10:58:00;7.77;;;5.00;;
11807;SDS011;5961;42.640;23.380;2023-04-03T11:00:33;5.70;;;4.30;;
11807;SDS011;5961;42.640;23.380;2023-04-03T11:03:05;5.23;;;4.40;;
11807;SDS011;5961;42.640;23.380;2023-04-03T11:05:39;6.17;;;4.50;;
11807;SDS011;5961;42.640;23.380;2023-04-03T11:08:11;4.33;;;3.73;;
11807;SDS011;5961;42.640;23.380;2023-04-03T11:10:45;3.90;;;3.50;;
11807;SDS011;5961;42.640;23.380;2023-04-03T11:13:15;4.10;;;3.37;;
11807;SDS011;5961;42.640;23.380;2023-04-03T11:15:47;6.53;;;3.37;;
11807;SDS011;5961;42.640;23.380;2023-04-03T11:18:15;5.40;;;4.53;;
11807;SDS011;5961;42.640;23.380;2023-04-03T11:20:47;5.63;;;3.80;;
11807;SDS011;5961;42.640;23.380;2023-04-03T11:23:21;4.77;;;4.20;;
11807;SDS011;5961;42.640;23.380;2023-04-03T11:25:51;6.67;;;4.37;;
11807;SDS011;5961;42.640;23.380;2023-04-03T11:28:21;6.37;;;4.80;;
11807;SDS011;5961;42.640;23.380;2023-04-03T11:30:50;6.13;;;4.20;;
11807;SDS011;5961;42.640;23.380;2023-04-03T11:33:25;6.13;;;4.60;;
11807;SDS011;5961;42.640;23.380;2023-04-03T11:36:02;5.27;;;4.17;;
11807;SDS011;5961;42.640;23.380;2023-04-03T11:38:35;6.70;;;4.50;;
11807;SDS011;5961;42.640;23.380;2023-04-03T11:41:06;8.03;;;5.17;;
11807;SDS011;5961;42.640;23.380;2023-04-03T11:43:39;5.83;;;4.27;;
11807;SDS011;5961;42.640;23.380;2023-04-03T11:46:08;5.63;;;4.90;;
11807;SDS011;5961;42.640;23.380;2023-04-03T11:48:48;5.03;;;4.53;;
11807;SDS011;5961;42.640;23.380;2023-04-03T12:06:48;5.53;;;3.97;;
11807;SDS011;5961;42.640;23.380;2023-04-03T12:09:27;5.57;;;3.60;;
11807;SDS011;5961;42.640;23.380;2023-04-03T12:11:58;5.63;;;4.53;;
11807;SDS011;5961;42.640;23.380;2023-04-03T12:14:28;5.37;;;4.70;;
11807;SDS011;5961;42.640;23.380;2023-04-03T12:16:55;4.93;;;4.43;;
11807;SDS011;5961;42.640;23.380;2023-04-03T12:19:29;6.67;;;5.17;;
11807;SDS011;5961;42.640;23.380;2023-04-03T12:22:16;10.03;;;7.13;;
11807;SDS011;5961;42.640;23.380;2023-04-03T12:24:46;9.60;;;6.67;;
11807;SDS011;5961;42.640;23.380;2023-04-03T12:27:20;9.60;;;6.67;;
11807;SDS011;5961;42.640;23.380;2023-04-03T12:29:54;8.40;;;4.67;;
11807;SDS011;5961;42.640;23.380;2023-04-03T12:32:34;7.73;;;5.77;;
11807;SDS011;5961;42.640;23.380;2023-04-03T12:35:11;11.67;;;7.27;;
11807;SDS011;5961;42.640;23.380;2023-04-03T12:40:57;7.83;;;5.77;;
11807;SDS011;5961;42.640;23.380;2023-04-03T12:43:36;9.77;;;6.30;;
11807;SDS011;5961;42.640;23.380;2023-04-03T12:46:14;6.53;;;5.57;;
11807;SDS011;5961;42.640;23.380;2023-04-03T12:48:47;6.43;;;5.30;;
11807;SDS011;5961;42.640;23.380;2023-04-03T12:51:16;6.23;;;5.60;;
11807;SDS011;5961;42.640;23.380;2023-04-03T12:53:46;6.77;;;5.40;;
11807;SDS011;5961;42.640;23.380;2023-04-03T12:56:21;10.10;;;7.33;;
11807;SDS011;5961;42.640;23.380;2023-04-03T12:58:50;8.07;;;6.50;;
11807;SDS011;5961;42.640;23.380;2023-04-03T13:01:18;8.57;;;7.00;;
11807;SDS011;5961;42.640;23.380;2023-04-03T13:03:48;7.40;;;5.93;;
11807;SDS011;5961;42.640;23.380;2023-04-03T13:06:18;6.27;;;4.53;;
11807;SDS011;5961;42.640;23.380;2023-04-03T13:08:51;5.70;;;4.70;;
11807;SDS011;5961;42.640;23.380;2023-04-03T13:11:19;4.83;;;4.30;;
11807;SDS011;5961;42.640;23.380;2023-04-03T13:13:55;7.83;;;4.53;;
11807;SDS011;5961;42.640;23.380;2023-04-03T13:16:23;6.17;;;4.73;;
11807;SDS011;5961;42.640;23.380;2023-04-03T13:18:51;5.53;;;4.30;;
11807;SDS011;5961;42.640;23.380;2023-04-03T13:21:19;4.90;;;4.40;;
11807;SDS011;5961;42.640;23.380;2023-04-03T13:23:50;6.97;;;4.63;;
11807;SDS011;5961;42.640;23.380;2023-04-03T13:26:19;5.77;;;4.80;;
11807;SDS011;5961;42.640;23.380;2023-04-03T13:28:48;7.40;;;5.30;;
11807;SDS011;5961;42.640;23.380;2023-04-03T13:31:19;7.17;;;5.50;;
11807;SDS011;5961;42.640;23.380;2023-04-03T13:33:53;5.17;;;4.50;;
11807;SDS011;5961;42.640;23.380;2023-04-03T13:36:23;8.50;;;5.97;;
11807;SDS011;5961;42.640;23.380;2023-04-03T13:39:01;6.57;;;5.67;;
11807;SDS011;5961;42.640;23.380;2023-04-03T13:41:30;6.93;;;5.37;;
11807;SDS011;5961;42.640;23.380;2023-04-03T13:44:14;9.67;;;5.80;;
11807;SDS011;5961;42.640;23.380;2023-04-03T13:46:43;8.97;;;6.43;;
11807;SDS011;5961;42.640;23.380;2023-04-03T13:49:20;7.80;;;6.50;;
11807;SDS011;5961;42.640;23.380;2023-04-03T13:51:48;7.80;;;6.10;;
11807;SDS011;5961;42.640;23.380;2023-04-03T13:54:18;8.97;;;6.40;;
11807;SDS011;5961;42.640;23.380;2023-04-03T13:56:52;7.27;;;6.27;;
11807;SDS011;5961;42.640;23.380;2023-04-03T13:59:21;9.23;;;6.27;;
11807;SDS011;5961;42.640;23.380;2023-04-03T14:01:52;9.20;;;5.60;;
11807;SDS011;5961;42.640;23.380;2023-04-03T14:04:21;7.27;;;5.33;;
11807;SDS011;5961;42.640;23.380;2023-04-03T14:06:50;7.13;;;5.60;;
11807;SDS011;5961;42.640;23.380;2023-04-03T14:09:18;7.13;;;5.77;;
11807;SDS011;5961;42.640;23.380;2023-04-03T14:11:46;8.87;;;5.50;;
11807;SDS011;5961;42.640;23.380;2023-04-03T14:14:15;7.77;;;5.93;;
11807;SDS011;5961;42.640;23.380;2023-04-03T14:16:44;7.10;;;5.83;;
11807;SDS011;5961;42.640;23.380;2023-04-03T14:19:18;6.47;;;5.40;;
11807;SDS011;5961;42.640;23.380;2023-04-03T14:21:47;6.93;;;5.50;;
11807;SDS011;5961;42.640;23.380;2023-04-03T14:24:16;8.10;;;6.47;;
11807;SDS011;5961;42.640;23.380;2023-04-03T14:26:43;7.97;;;6.37;;
11807;SDS011;5961;42.640;23.380;2023-04-03T14:29:10;7.90;;;6.67;;
11807;SDS011;5961;42.640;23.380;2023-04-03T14:31:38;7.20;;;6.00;;
11807;SDS011;5961;42.640;23.380;2023-04-03T14:34:06;6.50;;;5.47;;
11807;SDS011;5961;42.640;23.380;2023-04-03T14:36:34;8.17;;;5.70;;
11807;SDS011;5961;42.640;23.380;2023-04-03T14:39:03;8.20;;;4.87;;
11807;SDS011;5961;42.640;23.380;2023-04-03T14:41:30;6.63;;;4.90;;
11807;SDS011;5961;42.640;23.380;2023-04-03T14:43:57;4.57;;;4.00;;
11807;SDS011;5961;42.640;23.380;2023-04-03T14:46:25;5.23;;;4.20;;
11807;SDS011;5961;42.640;23.380;2023-04-03T14:48:54;5.27;;;4.77;;
11807;SDS011;5961;42.640;23.380;2023-04-03T14:51:21;6.10;;;4.73;;
11807;SDS011;5961;42.640;23.380;2023-04-03T14:53:50;6.00;;;4.80;;
11807;SDS011;5961;42.640;23.380;2023-04-03T14:56:18;9.23;;;5.17;;
11807;SDS011;5961;42.640;23.380;2023-04-03T14:58:49;5.27;;;4.70;;
11807;SDS011;5961;42.640;23.380;2023-04-03T15:01:18;6.00;;;4.77;;
11807;SDS011;5961;42.640;23.380;2023-04-03T15:03:45;6.03;;;4.90;;
11807;SDS011;5961;42.640;23.380;2023-04-03T15:06:12;6.67;;;5.23;;
11807;SDS011;5961;42.640;23.380;2023-04-03T15:08:41;7.37;;;5.60;;
11807;SDS011;5961;42.640;23.380;2023-04-03T15:11:11;5.27;;;4.57;;
11807;SDS011;5961;42.640;23.380;2023-04-03T15:13:38;7.20;;;5.80;;
11807;SDS011;5961;42.640;23.380;2023-04-03T15:16:05;6.23;;;5.03;;